Main page
METAR-TAF:

METAR-TAF

Airports :

Gainesville Regional Airport

Gainesville, Florida, United States

latitude: 29-41-31N, longitude: 082-16-32W, elevation: 151 ft

Current weather observation

The report was made 1 hour and 8 minutes ago, at 02:53 UTC
Calm wind
Temperature 72°F
Humidity 83%
Pressure 30.09 in. Hg
Visibility: 10 miles
Scattered clouds at a height of 7500 ft

METAR: KGNV 260253Z 00000KT 10SM SCT075 22/19 A3009 RMK AO2 SLP187 T02170194 51020

Time: 00:01 (04:01 UTC)

Forecast

The report was made 4 hours and 35 minutes ago, at 23:26 UTC
Forecast valid from 26 at 00 UTC to 26 at 24 UTC
Wind 5 mph from variable directions
Visibility: 6 miles
Scattered clouds at a height of 4000 ft
Broken clouds at a height of 7000 ft
From 26 at 1800 UTC
Wind 9 mph from the North/Northeast
Visibility: 6 miles
Scattered clouds at a height of 5000 ft

TAF: KGNV 252326Z 2600/2624 VRB04KT P6SM SCT040 BKN070 FM261800 03008KT P6SM SCT050

Weather observations and forecasts of more than 4000 airports (METAR and TAF reports).

The available stations are represented by yellow and red dots on the map.

Hover mouse over dot to see the name of the station.

Then click to see weather observations and forecasts.

To change the map : click on the green buttons with a black cross to zoom in, on the green button with a dash to zoom out, or on the green arrows for adjacent maps.


METAR-TAF: